American Constellation — WDJ3099 — position and weather

sailwx.info

Track history (hours):
 
Tides and Currents Weather Stations Pressure Air Temp Water Temp Dewpoint Dewpoint Depression Visibility Wind Speed Wind Dir Waves Ship Positions

American Constellation

Owner: American Cruise Lines, Inc., Guilford, CT. More information available from US FCC via Universal Licensing System and Coast Guard Vessel Documentation Center.

Last reported at 2018-Jan-29 17:53 UTC. Time now 2018-Feb-18 01:38 UTC.
Position N 47°17' W 122°24'.
Warning: this ship's position is 19 days out of date.

Length 82 m; draft 3 m.

Type: Passenger vessel. MMSI: 367764750.

Date/timePositionNaut miles runAvg speedWind from/ knotsBaromVisibWave heightAir tempDewpointWater temp
2018-Jan-29 17:53N 47°17' W 122°24'0 0.0
2018-Jan-29 16:10N 47°17' W 122°24'0 0.3
2018-Jan-29 16:01N 47°17' W 122°25'1 1.3
2018-Jan-29 15:20N 47°17' W 122°26'0 0.0
2018-Jan-29 14:59N 47°17' W 122°26'0 0.0
2018-Jan-29 14:26N 47°17' W 122°26'0 0.0
2018-Jan-29 13:44N 47°17' W 122°26'0 0.0
2018-Jan-29 13:26N 47°17' W 122°26'0 0.0
2018-Jan-29 12:59N 47°17' W 122°26'0 0.1
2018-Jan-29 12:23N 47°17' W 122°26'0 0.0
2018-Jan-29 11:59N 47°17' W 122°26'0 0.0
2018-Jan-29 11:17N 47°17' W 122°26'0 0.0
2018-Jan-29 10:56N 47°17' W 122°26'0 0.1
2018-Jan-29 10:29N 47°17' W 122°26'0 0.0
2018-Jan-29 09:59N 47°17' W 122°26'0 0.0
2018-Jan-29 09:23N 47°17' W 122°26'0 0.0
2018-Jan-29 08:59N 47°17' W 122°26'0 0.0
2018-Jan-29 08:20N 47°17' W 122°26'0 0.2
2018-Jan-29 08:00N 47°17' W 122°26'4 8.0
2018-Jan-29 07:30N 47°21' W 122°25'510.4
2018-Jan-29 07:00N 47°27' W 122°25'713.1
2018-Jan-29 06:30N 47°33' W 122°27'713.2
2018-Jan-29 06:00N 47°39' W 122°29'612.8
2018-Jan-29 05:30N 47°46' W 122°27'612.9
2018-Jan-29 05:00N 47°52' W 122°29'611.3
2018-Jan-29 04:30N 47°57' W 122°34'23 9.6
2018-Jan-29 02:08N 48°12' W 122°59'311.5
2018-Jan-29 01:53N 48°12' W 123°04'511.8
2018-Jan-29 01:29N 48°12' W 123°11'510.8
2018-Jan-29 01:00N 48°12' W 123°19'610.8
2018-Jan-29 00:27N 48°12' W 123°28'2510.6
2018-Jan-28 22:07N 48°16' W 124°05'211.7
2018-Jan-28 21:57N 48°17' W 124°07'511.6
2018-Jan-28 21:30N 48°19' W 124°14'611.7
2018-Jan-28 21:00N 48°21' W 124°22'611.9
2018-Jan-28 20:30N 48°24' W 124°30'611.5
2018-Jan-28 20:00N 48°26' W 124°38'511.0
2018-Jan-28 19:30N 48°28' W 124°46'612.6
2018-Jan-28 19:00N 48°26' W 124°55'612.2
2018-Jan-28 18:30N 48°20' W 124°60'612.2
2018-Jan-28 17:59N 48°15' W 125°03'7512.7
2018-Jan-28 12:03N 46°60' W 125°10'112.1
2018-Jan-28 11:58N 46°59' W 125°10'811.9
2018-Jan-28 11:17N 46°50' W 125°09'311.9
2018-Jan-28 11:00N 46°47' W 125°09'611.6
2018-Jan-28 10:30N 46°41' W 125°08'611.5
2018-Jan-28 10:00N 46°36' W 125°07'612.0
2018-Jan-28 09:30N 46°30' W 125°06'612.1
2018-Jan-28 09:01N 46°24' W 125°06'612.3
2018-Jan-28 08:30N 46°18' W 125°05'612.4
2018-Jan-28 08:00N 46°11' W 125°05'912.4
2018-Jan-28 07:15N 46°02' W 125°04'312.3
2018-Jan-28 07:00N 45°59' W 125°04'612.4
2018-Jan-28 06:31N 45°53' W 125°03'612.2
2018-Jan-28 06:00N 45°47' W 125°02'612.3
2018-Jan-28 05:31N 45°41' W 125°02'612.3
2018-Jan-28 05:01N 45°35' W 125°01'612.2
2018-Jan-28 04:30N 45°28' W 124°60'612.2
2018-Jan-28 03:59N 45°22' W 124°59'2611.8
2018-Jan-28 01:49N 44°56' W 124°56'37411.4
2018-Jan-26 16:57N 38°46' W 123°45'511.5
2018-Jan-26 16:29N 38°41' W 123°43'511.3
2018-Jan-26 16:00N 38°36' W 123°42'611.1
2018-Jan-26 15:30N 38°31' W 123°40'611.3
2018-Jan-26 15:01N 38°25' W 123°38'611.6
2018-Jan-26 14:31N 38°20' W 123°35'611.5
2018-Jan-26 14:00N 38°14' W 123°33'611.5
2018-Jan-26 13:30N 38°09' W 123°31'611.6
2018-Jan-26 13:00N 38°03' W 123°29'611.6
2018-Jan-26 12:31N 37°58' W 123°27'611.5
2018-Jan-26 12:00N 37°52' W 123°25'611.3
2018-Jan-26 11:30N 37°47' W 123°23'811.6
2018-Jan-26 10:50N 37°39' W 123°20'17011.6
2018-Jan-25 20:08N 35°13' W 121°30'211.9
2018-Jan-25 19:58N 35°12' W 121°29'511.6
2018-Jan-25 19:30N 35°07' W 121°26'611.8
2018-Jan-25 19:00N 35°02' W 121°21'611.9
2018-Jan-25 18:30N 34°58' W 121°17'611.5
2018-Jan-25 18:00N 34°53' W 121°13'611.6
2018-Jan-25 17:30N 34°49' W 121°08'611.5
2018-Jan-25 17:00N 34°44' W 121°04'611.1
2018-Jan-25 16:30N 34°40' W 120°59'5 9.9
2018-Jan-25 16:00N 34°36' W 120°57'510.8
2018-Jan-25 15:30N 34°32' W 120°52'611.4
2018-Jan-25 15:00N 34°28' W 120°47'611.4
2018-Jan-25 14:30N 34°25' W 120°41'611.4
2018-Jan-25 14:00N 34°23' W 120°35'611.7
2018-Jan-25 13:30N 34°21' W 120°28'612.7
2018-Jan-25 13:00N 34°20' W 120°20'612.7
2018-Jan-25 12:30N 34°18' W 120°13'612.4
2018-Jan-25 12:00N 34°16' W 120°06'611.9
2018-Jan-25 11:29N 34°15' W 119°58'612.0
2018-Jan-25 11:00N 34°13' W 119°52'612.1
2018-Jan-25 10:30N 34°11' W 119°45'612.0
2018-Jan-25 10:00N 34°10' W 119°38'612.3
2018-Jan-25 09:30N 34°08' W 119°30'612.1
2018-Jan-25 09:00N 34°07' W 119°23'612.2
2018-Jan-25 08:30N 34°05' W 119°16'611.9
2018-Jan-25 08:00N 34°02' W 119°10'612.2
2018-Jan-25 07:30N 33°59' W 119°04'612.4
2018-Jan-25 07:00N 33°56' W 118°57'612.2
2018-Jan-25 06:30N 33°53' W 118°51'612.0
2018-Jan-25 05:59N 33°50' W 118°44'611.9
2018-Jan-25 05:30N 33°47' W 118°38'611.7
2018-Jan-25 05:00N 33°44' W 118°32'611.8
2018-Jan-25 04:30N 33°41' W 118°26'1711.8
2018-Jan-25 03:04N 33°33' W 118°08'211.8
2018-Jan-25 02:53N 33°32' W 118°06'512.1
2018-Jan-25 02:29N 33°29' W 118°01'612.4
2018-Jan-25 02:00N 33°24' W 117°57'612.4
2018-Jan-25 01:30N 33°20' W 117°52'612.3
2018-Jan-25 01:00N 33°15' W 117°48'612.2
2018-Jan-25 00:30N 33°10' W 117°43'612.2
2018-Jan-25 00:01N 33°05' W 117°39'612.1
2018-Jan-24 23:30N 33°00' W 117°34'612.2
2018-Jan-24 23:01N 32°55' W 117°30'612.0
2018-Jan-24 22:31N 32°51' W 117°26'611.8
2018-Jan-24 22:01N 32°46' W 117°21'  
Track history (hours):
 
Tides and Currents Weather Stations Pressure Air Temp Water Temp Dewpoint Dewpoint Depression Visibility Wind Speed Wind Dir Waves Ship Positions

American Constellation

Owner: American Cruise Lines, Inc., Guilford, CT. More information available from US FCC via Universal Licensing System and Coast Guard Vessel Documentation Center.

Last reported at 2018-Jan-29 17:53 UTC. Time now 2018-Feb-18 01:38 UTC.
Position N 47°17' W 122°24'.
Warning: this ship's position is 19 days out of date.

Length 82 m; draft 3 m.

Type: Passenger vessel. MMSI: 367764750.

Date/timePositionNaut miles runAvg speedWind from/ knotsBaromVisibWave heightAir tempDewpointWater temp
2018-Jan-29 17:53N 47°17' W 122°24'0 0.0
2018-Jan-29 16:10N 47°17' W 122°24'0 0.3
2018-Jan-29 16:01N 47°17' W 122°25'1 1.3
2018-Jan-29 15:20N 47°17' W 122°26'0 0.0
2018-Jan-29 14:59N 47°17' W 122°26'0 0.0
2018-Jan-29 14:26N 47°17' W 122°26'0 0.0
2018-Jan-29 13:44N 47°17' W 122°26'0 0.0
2018-Jan-29 13:26N 47°17' W 122°26'0 0.0
2018-Jan-29 12:59N 47°17' W 122°26'0 0.1
2018-Jan-29 12:23N 47°17' W 122°26'0 0.0
2018-Jan-29 11:59N 47°17' W 122°26'0 0.0
2018-Jan-29 11:17N 47°17' W 122°26'0 0.0
2018-Jan-29 10:56N 47°17' W 122°26'0 0.1
2018-Jan-29 10:29N 47°17' W 122°26'0 0.0
2018-Jan-29 09:59N 47°17' W 122°26'0 0.0
2018-Jan-29 09:23N 47°17' W 122°26'0 0.0
2018-Jan-29 08:59N 47°17' W 122°26'0 0.0
2018-Jan-29 08:20N 47°17' W 122°26'0 0.2
2018-Jan-29 08:00N 47°17' W 122°26'4 8.0
2018-Jan-29 07:30N 47°21' W 122°25'510.4
2018-Jan-29 07:00N 47°27' W 122°25'713.1
2018-Jan-29 06:30N 47°33' W 122°27'713.2
2018-Jan-29 06:00N 47°39' W 122°29'612.8
2018-Jan-29 05:30N 47°46' W 122°27'612.9
2018-Jan-29 05:00N 47°52' W 122°29'611.3
2018-Jan-29 04:30N 47°57' W 122°34'23 9.6
2018-Jan-29 02:08N 48°12' W 122°59'311.5
2018-Jan-29 01:53N 48°12' W 123°04'511.8
2018-Jan-29 01:29N 48°12' W 123°11'510.8
2018-Jan-29 01:00N 48°12' W 123°19'610.8
2018-Jan-29 00:27N 48°12' W 123°28'2510.6
2018-Jan-28 22:07N 48°16' W 124°05'211.7
2018-Jan-28 21:57N 48°17' W 124°07'511.6
2018-Jan-28 21:30N 48°19' W 124°14'611.7
2018-Jan-28 21:00N 48°21' W 124°22'611.9
2018-Jan-28 20:30N 48°24' W 124°30'611.5
2018-Jan-28 20:00N 48°26' W 124°38'511.0
2018-Jan-28 19:30N 48°28' W 124°46'612.6
2018-Jan-28 19:00N 48°26' W 124°55'612.2
2018-Jan-28 18:30N 48°20' W 124°60'612.2
2018-Jan-28 17:59N 48°15' W 125°03'7512.7
2018-Jan-28 12:03N 46°60' W 125°10'112.1
2018-Jan-28 11:58N 46°59' W 125°10'811.9
2018-Jan-28 11:17N 46°50' W 125°09'311.9
2018-Jan-28 11:00N 46°47' W 125°09'611.6
2018-Jan-28 10:30N 46°41' W 125°08'611.5
2018-Jan-28 10:00N 46°36' W 125°07'612.0
2018-Jan-28 09:30N 46°30' W 125°06'612.1
2018-Jan-28 09:01N 46°24' W 125°06'612.3
2018-Jan-28 08:30N 46°18' W 125°05'612.4
2018-Jan-28 08:00N 46°11' W 125°05'912.4
2018-Jan-28 07:15N 46°02' W 125°04'312.3
2018-Jan-28 07:00N 45°59' W 125°04'612.4
2018-Jan-28 06:31N 45°53' W 125°03'612.2
2018-Jan-28 06:00N 45°47' W 125°02'612.3
2018-Jan-28 05:31N 45°41' W 125°02'612.3
2018-Jan-28 05:01N 45°35' W 125°01'612.2
2018-Jan-28 04:30N 45°28' W 124°60'612.2
2018-Jan-28 03:59N 45°22' W 124°59'2611.8
2018-Jan-28 01:49N 44°56' W 124°56'37411.4
2018-Jan-26 16:57N 38°46' W 123°45'511.5
2018-Jan-26 16:29N 38°41' W 123°43'511.3
2018-Jan-26 16:00N 38°36' W 123°42'611.1
2018-Jan-26 15:30N 38°31' W 123°40'611.3
2018-Jan-26 15:01N 38°25' W 123°38'611.6
2018-Jan-26 14:31N 38°20' W 123°35'611.5
2018-Jan-26 14:00N 38°14' W 123°33'611.5
2018-Jan-26 13:30N 38°09' W 123°31'611.6
2018-Jan-26 13:00N 38°03' W 123°29'611.6
2018-Jan-26 12:31N 37°58' W 123°27'611.5
2018-Jan-26 12:00N 37°52' W 123°25'611.3
2018-Jan-26 11:30N 37°47' W 123°23'811.6
2018-Jan-26 10:50N 37°39' W 123°20'17011.6
2018-Jan-25 20:08N 35°13' W 121°30'211.9
2018-Jan-25 19:58N 35°12' W 121°29'511.6
2018-Jan-25 19:30N 35°07' W 121°26'611.8
2018-Jan-25 19:00N 35°02' W 121°21'611.9
2018-Jan-25 18:30N 34°58' W 121°17'611.5
2018-Jan-25 18:00N 34°53' W 121°13'611.6
2018-Jan-25 17:30N 34°49' W 121°08'611.5
2018-Jan-25 17:00N 34°44' W 121°04'611.1
2018-Jan-25 16:30N 34°40' W 120°59'5 9.9
2018-Jan-25 16:00N 34°36' W 120°57'510.8
2018-Jan-25 15:30N 34°32' W 120°52'611.4
2018-Jan-25 15:00N 34°28' W 120°47'611.4
2018-Jan-25 14:30N 34°25' W 120°41'611.4
2018-Jan-25 14:00N 34°23' W 120°35'611.7
2018-Jan-25 13:30N 34°21' W 120°28'612.7
2018-Jan-25 13:00N 34°20' W 120°20'612.7
2018-Jan-25 12:30N 34°18' W 120°13'612.4
2018-Jan-25 12:00N 34°16' W 120°06'611.9
2018-Jan-25 11:29N 34°15' W 119°58'612.0
2018-Jan-25 11:00N 34°13' W 119°52'612.1
2018-Jan-25 10:30N 34°11' W 119°45'612.0
2018-Jan-25 10:00N 34°10' W 119°38'612.3
2018-Jan-25 09:30N 34°08' W 119°30'612.1
2018-Jan-25 09:00N 34°07' W 119°23'612.2
2018-Jan-25 08:30N 34°05' W 119°16'611.9
2018-Jan-25 08:00N 34°02' W 119°10'612.2
2018-Jan-25 07:30N 33°59' W 119°04'612.4
2018-Jan-25 07:00N 33°56' W 118°57'612.2
2018-Jan-25 06:30N 33°53' W 118°51'612.0
2018-Jan-25 05:59N 33°50' W 118°44'611.9
2018-Jan-25 05:30N 33°47' W 118°38'611.7
2018-Jan-25 05:00N 33°44' W 118°32'611.8
2018-Jan-25 04:30N 33°41' W 118°26'1711.8
2018-Jan-25 03:04N 33°33' W 118°08'211.8
2018-Jan-25 02:53N 33°32' W 118°06'512.1
2018-Jan-25 02:29N 33°29' W 118°01'612.4
2018-Jan-25 02:00N 33°24' W 117°57'612.4
2018-Jan-25 01:30N 33°20' W 117°52'612.3
2018-Jan-25 01:00N 33°15' W 117°48'612.2
2018-Jan-25 00:30N 33°10' W 117°43'612.2
2018-Jan-25 00:01N 33°05' W 117°39'612.1
2018-Jan-24 23:30N 33°00' W 117°34'612.2
2018-Jan-24 23:01N 32°55' W 117°30'612.0
2018-Jan-24 22:31N 32°51' W 117°26'611.8
2018-Jan-24 22:01N 32°46' W 117°21'  

Dump ship's entire track history